sensor_id;sensor_type;location;lat;lon;timestamp;P1;durP1;ratioP1;P2;durP2;ratioP2
2720;SDS011;1368;49.484;11.112;2022-10-16T00:01:23;7.63;;;2.50;;
2720;SDS011;1368;49.484;11.112;2022-10-16T00:03:50;5.47;;;2.40;;
2720;SDS011;1368;49.484;11.112;2022-10-16T00:06:17;7.00;;;3.07;;
2720;SDS011;1368;49.484;11.112;2022-10-16T00:08:46;5.30;;;3.10;;
2720;SDS011;1368;49.484;11.112;2022-10-16T00:11:17;8.10;;;3.30;;
2720;SDS011;1368;49.484;11.112;2022-10-16T00:13:48;4.93;;;2.73;;
2720;SDS011;1368;49.484;11.112;2022-10-16T00:16:15;5.70;;;3.10;;
2720;SDS011;1368;49.484;11.112;2022-10-16T00:18:41;6.30;;;2.90;;
2720;SDS011;1368;49.484;11.112;2022-10-16T00:21:08;5.13;;;2.80;;
2720;SDS011;1368;49.484;11.112;2022-10-16T00:23:35;4.83;;;3.00;;
2720;SDS011;1368;49.484;11.112;2022-10-16T00:26:03;5.10;;;2.50;;
2720;SDS011;1368;49.484;11.112;2022-10-16T00:28:30;5.23;;;3.30;;
2720;SDS011;1368;49.484;11.112;2022-10-16T00:30:56;4.30;;;2.67;;
2720;SDS011;1368;49.484;11.112;2022-10-16T00:33:22;5.30;;;3.07;;
2720;SDS011;1368;49.484;11.112;2022-10-16T00:35:48;4.40;;;2.93;;
2720;SDS011;1368;49.484;11.112;2022-10-16T00:38:14;4.40;;;3.17;;
2720;SDS011;1368;49.484;11.112;2022-10-16T00:40:40;7.20;;;3.00;;
2720;SDS011;1368;49.484;11.112;2022-10-16T00:43:12;5.50;;;2.50;;
2720;SDS011;1368;49.484;11.112;2022-10-16T00:45:56;9.50;;;2.70;;
2720;SDS011;1368;49.484;11.112;2022-10-16T00:48:22;6.80;;;3.47;;
2720;SDS011;1368;49.484;11.112;2022-10-16T00:50:47;7.60;;;3.70;;
2720;SDS011;1368;49.484;11.112;2022-10-16T00:53:13;5.67;;;3.10;;
2720;SDS011;1368;49.484;11.112;2022-10-16T00:55:40;9.30;;;3.20;;
2720;SDS011;1368;49.484;11.112;2022-10-16T00:58:06;4.20;;;2.40;;
2720;SDS011;1368;49.484;11.112;2022-10-16T01:00:32;6.47;;;2.80;;
2720;SDS011;1368;49.484;11.112;2022-10-16T01:02:58;7.80;;;3.03;;
2720;SDS011;1368;49.484;11.112;2022-10-16T01:05:27;4.33;;;2.97;;
2720;SDS011;1368;49.484;11.112;2022-10-16T01:13:20;6.20;;;2.63;;
2720;SDS011;1368;49.484;11.112;2022-10-16T01:15:54;3.70;;;2.40;;
2720;SDS011;1368;49.484;11.112;2022-10-16T01:18:44;6.17;;;3.07;;
2720;SDS011;1368;49.484;11.112;2022-10-16T01:21:13;8.90;;;3.00;;
2720;SDS011;1368;49.484;11.112;2022-10-16T01:29:26;9.17;;;3.70;;
2720;SDS011;1368;49.484;11.112;2022-10-16T01:32:00;11.80;;;3.30;;
2720;SDS011;1368;49.484;11.112;2022-10-16T01:34:37;6.60;;;3.10;;
2720;SDS011;1368;49.484;11.112;2022-10-16T01:37:15;3.70;;;2.77;;
2720;SDS011;1368;49.484;11.112;2022-10-16T01:39:46;5.80;;;3.17;;
2720;SDS011;1368;49.484;11.112;2022-10-16T01:42:20;6.93;;;2.53;;
2720;SDS011;1368;49.484;11.112;2022-10-16T01:44:49;5.43;;;2.93;;
2720;SDS011;1368;49.484;11.112;2022-10-16T01:47:17;4.50;;;2.80;;
2720;SDS011;1368;49.484;11.112;2022-10-16T01:49:46;6.33;;;3.37;;
2720;SDS011;1368;49.484;11.112;2022-10-16T01:52:14;3.67;;;2.90;;
2720;SDS011;1368;49.484;11.112;2022-10-16T01:54:45;8.13;;;3.50;;
2720;SDS011;1368;49.484;11.112;2022-10-16T01:57:13;6.57;;;3.07;;
2720;SDS011;1368;49.484;11.112;2022-10-16T01:59:46;5.33;;;3.23;;
2720;SDS011;1368;49.484;11.112;2022-10-16T02:02:15;4.90;;;2.80;;
2720;SDS011;1368;49.484;11.112;2022-10-16T02:04:47;4.97;;;2.80;;
2720;SDS011;1368;49.484;11.112;2022-10-16T02:07:18;8.77;;;3.67;;
2720;SDS011;1368;49.484;11.112;2022-10-16T02:09:43;3.63;;;2.50;;
2720;SDS011;1368;49.484;11.112;2022-10-16T02:12:11;13.17;;;3.40;;
2720;SDS011;1368;49.484;11.112;2022-10-16T02:14:43;3.83;;;3.00;;
2720;SDS011;1368;49.484;11.112;2022-10-16T02:17:12;5.27;;;3.00;;
2720;SDS011;1368;49.484;11.112;2022-10-16T02:19:42;6.40;;;3.40;;
2720;SDS011;1368;49.484;11.112;2022-10-16T02:22:13;5.63;;;3.63;;
2720;SDS011;1368;49.484;11.112;2022-10-16T02:24:53;7.40;;;3.53;;
2720;SDS011;1368;49.484;11.112;2022-10-16T02:27:27;5.83;;;3.17;;
2720;SDS011;1368;49.484;11.112;2022-10-16T02:29:56;6.77;;;3.80;;
2720;SDS011;1368;49.484;11.112;2022-10-16T02:32:33;3.60;;;2.93;;
2720;SDS011;1368;49.484;11.112;2022-10-16T02:35:00;4.43;;;3.17;;
2720;SDS011;1368;49.484;11.112;2022-10-16T02:37:27;6.73;;;3.10;;
2720;SDS011;1368;49.484;11.112;2022-10-16T02:39:53;5.10;;;3.00;;
2720;SDS011;1368;49.484;11.112;2022-10-16T02:42:20;4.80;;;3.00;;
2720;SDS011;1368;49.484;11.112;2022-10-16T02:44:52;7.53;;;3.10;;
2720;SDS011;1368;49.484;11.112;2022-10-16T02:47:17;5.70;;;3.40;;
2720;SDS011;1368;49.484;11.112;2022-10-16T02:49:43;5.23;;;2.60;;
2720;SDS011;1368;49.484;11.112;2022-10-16T02:52:08;3.50;;;2.80;;
2720;SDS011;1368;49.484;11.112;2022-10-16T02:54:34;4.57;;;2.90;;
2720;SDS011;1368;49.484;11.112;2022-10-16T02:56:59;5.00;;;2.97;;
2720;SDS011;1368;49.484;11.112;2022-10-16T02:59:25;7.23;;;2.87;;
2720;SDS011;1368;49.484;11.112;2022-10-16T03:01:50;5.70;;;2.77;;
2720;SDS011;1368;49.484;11.112;2022-10-16T03:04:16;8.83;;;2.93;;
2720;SDS011;1368;49.484;11.112;2022-10-16T03:06:41;3.43;;;2.70;;
2720;SDS011;1368;49.484;11.112;2022-10-16T03:09:07;5.23;;;3.50;;
2720;SDS011;1368;49.484;11.112;2022-10-16T03:11:32;6.03;;;2.97;;
2720;SDS011;1368;49.484;11.112;2022-10-16T03:13:58;4.80;;;2.80;;
2720;SDS011;1368;49.484;11.112;2022-10-16T03:16:24;6.70;;;3.73;;
2720;SDS011;1368;49.484;11.112;2022-10-16T03:18:49;9.03;;;3.30;;
2720;SDS011;1368;49.484;11.112;2022-10-16T03:21:15;5.27;;;3.43;;
2720;SDS011;1368;49.484;11.112;2022-10-16T03:23:41;5.53;;;3.93;;
2720;SDS011;1368;49.484;11.112;2022-10-16T03:26:07;3.60;;;3.23;;
2720;SDS011;1368;49.484;11.112;2022-10-16T03:28:32;5.53;;;3.23;;
2720;SDS011;1368;49.484;11.112;2022-10-16T03:30:58;3.60;;;3.07;;
2720;SDS011;1368;49.484;11.112;2022-10-16T03:33:23;5.60;;;3.47;;
2720;SDS011;1368;49.484;11.112;2022-10-16T03:35:53;4.80;;;3.07;;
2720;SDS011;1368;49.484;11.112;2022-10-16T03:38:19;5.50;;;2.90;;
2720;SDS011;1368;49.484;11.112;2022-10-16T03:40:46;6.27;;;3.30;;
2720;SDS011;1368;49.484;11.112;2022-10-16T03:43:12;5.63;;;3.20;;
2720;SDS011;1368;49.484;11.112;2022-10-16T03:45:37;4.80;;;3.20;;
2720;SDS011;1368;49.484;11.112;2022-10-16T03:48:03;4.03;;;3.10;;
2720;SDS011;1368;49.484;11.112;2022-10-16T03:50:29;4.13;;;3.47;;
2720;SDS011;1368;49.484;11.112;2022-10-16T03:52:54;5.00;;;3.50;;
2720;SDS011;1368;49.484;11.112;2022-10-16T03:55:20;4.10;;;3.30;;
2720;SDS011;1368;49.484;11.112;2022-10-16T03:57:45;3.33;;;2.97;;
2720;SDS011;1368;49.484;11.112;2022-10-16T04:00:11;7.87;;;3.53;;
2720;SDS011;1368;49.484;11.112;2022-10-16T04:02:37;6.37;;;3.40;;
2720;SDS011;1368;49.484;11.112;2022-10-16T04:05:03;4.00;;;3.40;;
2720;SDS011;1368;49.484;11.112;2022-10-16T04:07:29;5.00;;;3.53;;
2720;SDS011;1368;49.484;11.112;2022-10-16T04:09:54;7.70;;;3.23;;
2720;SDS011;1368;49.484;11.112;2022-10-16T04:12:20;5.30;;;3.53;;
2720;SDS011;1368;49.484;11.112;2022-10-16T04:14:46;6.43;;;3.20;;
2720;SDS011;1368;49.484;11.112;2022-10-16T04:17:11;7.90;;;3.13;;
2720;SDS011;1368;49.484;11.112;2022-10-16T04:19:37;6.13;;;4.70;;
2720;SDS011;1368;49.484;11.112;2022-10-16T04:22:02;4.40;;;3.13;;
2720;SDS011;1368;49.484;11.112;2022-10-16T04:24:28;4.47;;;3.30;;
2720;SDS011;1368;49.484;11.112;2022-10-16T04:26:53;7.60;;;3.07;;
2720;SDS011;1368;49.484;11.112;2022-10-16T04:29:19;3.47;;;2.80;;
2720;SDS011;1368;49.484;11.112;2022-10-16T04:31:44;4.00;;;3.30;;
2720;SDS011;1368;49.484;11.112;2022-10-16T04:34:10;5.97;;;3.07;;
2720;SDS011;1368;49.484;11.112;2022-10-16T04:36:35;4.27;;;3.40;;
2720;SDS011;1368;49.484;11.112;2022-10-16T04:39:01;6.90;;;3.53;;
2720;SDS011;1368;49.484;11.112;2022-10-16T04:41:26;4.37;;;3.03;;
2720;SDS011;1368;49.484;11.112;2022-10-16T04:43:52;8.53;;;3.70;;
2720;SDS011;1368;49.484;11.112;2022-10-16T04:46:17;4.17;;;3.20;;
2720;SDS011;1368;49.484;11.112;2022-10-16T04:48:43;3.73;;;2.90;;
2720;SDS011;1368;49.484;11.112;2022-10-16T04:51:09;5.23;;;2.83;;
2720;SDS011;1368;49.484;11.112;2022-10-16T04:53:34;7.03;;;3.33;;
2720;SDS011;1368;49.484;11.112;2022-10-16T04:56:00;4.37;;;3.10;;
2720;SDS011;1368;49.484;11.112;2022-10-16T04:58:25;5.20;;;4.00;;
2720;SDS011;1368;49.484;11.112;2022-10-16T05:00:51;4.90;;;3.40;;
2720;SDS011;1368;49.484;11.112;2022-10-16T05:03:16;6.53;;;3.57;;
2720;SDS011;1368;49.484;11.112;2022-10-16T05:05:43;7.47;;;3.43;;
2720;SDS011;1368;49.484;11.112;2022-10-16T05:08:09;4.43;;;3.10;;
2720;SDS011;1368;49.484;11.112;2022-10-16T05:10:36;4.83;;;3.60;;
2720;SDS011;1368;49.484;11.112;2022-10-16T05:13:01;5.77;;;3.27;;
2720;SDS011;1368;49.484;11.112;2022-10-16T05:15:27;3.93;;;3.20;;
2720;SDS011;1368;49.484;11.112;2022-10-16T05:17:54;8.03;;;3.50;;
2720;SDS011;1368;49.484;11.112;2022-10-16T05:20:20;5.17;;;3.20;;
2720;SDS011;1368;49.484;11.112;2022-10-16T05:22:46;5.27;;;3.40;;
2720;SDS011;1368;49.484;11.112;2022-10-16T05:25:11;3.93;;;3.27;;
2720;SDS011;1368;49.484;11.112;2022-10-16T05:27:37;10.17;;;4.27;;
2720;SDS011;1368;49.484;11.112;2022-10-16T05:30:02;6.87;;;3.90;;
2720;SDS011;1368;49.484;11.112;2022-10-16T05:32:28;5.17;;;3.67;;
2720;SDS011;1368;49.484;11.112;2022-10-16T05:34:54;6.10;;;3.73;;
2720;SDS011;1368;49.484;11.112;2022-10-16T05:37:19;5.03;;;3.43;;
2720;SDS011;1368;49.484;11.112;2022-10-16T05:39:45;5.37;;;4.03;;
2720;SDS011;1368;49.484;11.112;2022-10-16T05:42:10;5.30;;;3.47;;
2720;SDS011;1368;49.484;11.112;2022-10-16T05:44:36;9.33;;;4.07;;
2720;SDS011;1368;49.484;11.112;2022-10-16T05:47:01;4.30;;;3.80;;
2720;SDS011;1368;49.484;11.112;2022-10-16T05:49:27;4.70;;;3.63;;
2720;SDS011;1368;49.484;11.112;2022-10-16T05:51:53;6.57;;;4.73;;
2720;SDS011;1368;49.484;11.112;2022-10-16T05:54:18;5.47;;;3.63;;
2720;SDS011;1368;49.484;11.112;2022-10-16T05:56:44;5.43;;;3.50;;
2720;SDS011;1368;49.484;11.112;2022-10-16T05:59:09;6.80;;;3.80;;
2720;SDS011;1368;49.484;11.112;2022-10-16T06:01:35;10.50;;;3.67;;
2720;SDS011;1368;49.484;11.112;2022-10-16T06:04:01;4.33;;;3.60;;
2720;SDS011;1368;49.484;11.112;2022-10-16T06:06:27;6.43;;;3.93;;
2720;SDS011;1368;49.484;11.112;2022-10-16T06:08:53;3.90;;;3.37;;
2720;SDS011;1368;49.484;11.112;2022-10-16T06:11:21;5.07;;;3.27;;
2720;SDS011;1368;49.484;11.112;2022-10-16T06:13:51;5.20;;;3.50;;
2720;SDS011;1368;49.484;11.112;2022-10-16T06:16:17;5.00;;;3.60;;
2720;SDS011;1368;49.484;11.112;2022-10-16T06:18:44;9.90;;;4.00;;
2720;SDS011;1368;49.484;11.112;2022-10-16T06:21:10;6.03;;;3.70;;
2720;SDS011;1368;49.484;11.112;2022-10-16T06:23:41;5.27;;;3.00;;
2720;SDS011;1368;49.484;11.112;2022-10-16T06:26:08;7.77;;;2.90;;
2720;SDS011;1368;49.484;11.112;2022-10-16T06:28:35;6.90;;;3.13;;
2720;SDS011;1368;49.484;11.112;2022-10-16T06:31:01;6.80;;;3.30;;
2720;SDS011;1368;49.484;11.112;2022-10-16T06:33:28;4.87;;;3.53;;
2720;SDS011;1368;49.484;11.112;2022-10-16T06:35:59;6.33;;;3.00;;
2720;SDS011;1368;49.484;11.112;2022-10-16T06:38:25;9.20;;;3.60;;
2720;SDS011;1368;49.484;11.112;2022-10-16T06:40:53;4.00;;;2.70;;
2720;SDS011;1368;49.484;11.112;2022-10-16T06:43:18;9.50;;;3.07;;
2720;SDS011;1368;49.484;11.112;2022-10-16T06:45:49;4.47;;;2.60;;
2720;SDS011;1368;49.484;11.112;2022-10-16T06:48:18;8.60;;;2.47;;
2720;SDS011;1368;49.484;11.112;2022-10-16T06:50:44;4.47;;;2.87;;
2720;SDS011;1368;49.484;11.112;2022-10-16T06:53:24;4.80;;;2.50;;
2720;SDS011;1368;49.484;11.112;2022-10-16T06:55:50;3.97;;;2.57;;
2720;SDS011;1368;49.484;11.112;2022-10-16T06:58:16;7.50;;;2.83;;
2720;SDS011;1368;49.484;11.112;2022-10-16T07:00:41;7.77;;;2.57;;
2720;SDS011;1368;49.484;11.112;2022-10-16T07:03:07;4.40;;;2.30;;
2720;SDS011;1368;49.484;11.112;2022-10-16T07:05:36;3.60;;;2.30;;
2720;SDS011;1368;49.484;11.112;2022-10-16T07:08:03;4.30;;;2.77;;
2720;SDS011;1368;49.484;11.112;2022-10-16T07:10:30;6.70;;;2.70;;
2720;SDS011;1368;49.484;11.112;2022-10-16T07:12:56;7.63;;;2.60;;
2720;SDS011;1368;49.484;11.112;2022-10-16T07:15:21;5.60;;;3.00;;
2720;SDS011;1368;49.484;11.112;2022-10-16T07:17:47;4.80;;;2.17;;
2720;SDS011;1368;49.484;11.112;2022-10-16T07:20:12;4.80;;;2.57;;
2720;SDS011;1368;49.484;11.112;2022-10-16T07:22:38;6.10;;;2.37;;
2720;SDS011;1368;49.484;11.112;2022-10-16T07:25:04;8.30;;;2.80;;
2720;SDS011;1368;49.484;11.112;2022-10-16T07:27:30;6.27;;;2.80;;
2720;SDS011;1368;49.484;11.112;2022-10-16T07:29:55;4.00;;;2.27;;
2720;SDS011;1368;49.484;11.112;2022-10-16T07:32:21;6.23;;;2.50;;
2720;SDS011;1368;49.484;11.112;2022-10-16T07:34:46;7.23;;;2.90;;
2720;SDS011;1368;49.484;11.112;2022-10-16T07:37:12;6.50;;;3.17;;
2720;SDS011;1368;49.484;11.112;2022-10-16T07:39:37;6.00;;;2.73;;
2720;SDS011;1368;49.484;11.112;2022-10-16T07:42:03;4.17;;;2.90;;
2720;SDS011;1368;49.484;11.112;2022-10-16T07:44:28;4.50;;;2.60;;
2720;SDS011;1368;49.484;11.112;2022-10-16T07:46:54;7.03;;;3.70;;
2720;SDS011;1368;49.484;11.112;2022-10-16T07:49:19;5.20;;;3.33;;
2720;SDS011;1368;49.484;11.112;2022-10-16T07:51:45;4.93;;;2.63;;
2720;SDS011;1368;49.484;11.112;2022-10-16T07:54:10;7.97;;;3.33;;
2720;SDS011;1368;49.484;11.112;2022-10-16T07:56:36;5.33;;;3.10;;
2720;SDS011;1368;49.484;11.112;2022-10-16T07:59:02;5.80;;;3.03;;
2720;SDS011;1368;49.484;11.112;2022-10-16T08:01:27;7.03;;;3.50;;
2720;SDS011;1368;49.484;11.112;2022-10-16T08:03:53;10.13;;;3.20;;
2720;SDS011;1368;49.484;11.112;2022-10-16T08:06:19;4.30;;;3.10;;
2720;SDS011;1368;49.484;11.112;2022-10-16T08:08:46;7.83;;;2.87;;
2720;SDS011;1368;49.484;11.112;2022-10-16T08:11:12;4.97;;;2.80;;
2720;SDS011;1368;49.484;11.112;2022-10-16T08:13:39;4.17;;;2.40;;
2720;SDS011;1368;49.484;11.112;2022-10-16T08:16:05;7.03;;;3.13;;
2720;SDS011;1368;49.484;11.112;2022-10-16T08:18:33;3.50;;;2.80;;
2720;SDS011;1368;49.484;11.112;2022-10-16T08:21:02;8.00;;;3.30;;
2720;SDS011;1368;49.484;11.112;2022-10-16T08:23:29;3.37;;;2.50;;
2720;SDS011;1368;49.484;11.112;2022-10-16T08:25:55;4.80;;;3.57;;
2720;SDS011;1368;49.484;11.112;2022-10-16T08:28:26;4.13;;;2.87;;
2720;SDS011;1368;49.484;11.112;2022-10-16T08:30:51;6.07;;;3.10;;
2720;SDS011;1368;49.484;11.112;2022-10-16T08:33:17;4.50;;;2.90;;
2720;SDS011;1368;49.484;11.112;2022-10-16T08:35:43;6.93;;;3.00;;
2720;SDS011;1368;49.484;11.112;2022-10-16T08:38:16;4.10;;;2.70;;
2720;SDS011;1368;49.484;11.112;2022-10-16T08:40:41;4.43;;;3.00;;
2720;SDS011;1368;49.484;11.112;2022-10-16T08:49:03;9.03;;;3.10;;
2720;SDS011;1368;49.484;11.112;2022-10-16T08:51:36;6.73;;;2.90;;
2720;SDS011;1368;49.484;11.112;2022-10-16T08:54:44;5.70;;;3.13;;
2720;SDS011;1368;49.484;11.112;2022-10-16T08:57:09;5.90;;;2.50;;
2720;SDS011;1368;49.484;11.112;2022-10-16T08:59:38;4.17;;;3.00;;
2720;SDS011;1368;49.484;11.112;2022-10-16T09:02:08;9.60;;;2.87;;
2720;SDS011;1368;49.484;11.112;2022-10-16T09:05:03;4.50;;;2.87;;
2720;SDS011;1368;49.484;11.112;2022-10-16T09:13:18;5.13;;;3.47;;
2720;SDS011;1368;49.484;11.112;2022-10-16T09:18:47;5.63;;;3.20;;
2720;SDS011;1368;49.484;11.112;2022-10-16T09:21:24;7.70;;;2.60;;
2720;SDS011;1368;49.484;11.112;2022-10-16T09:23:53;4.13;;;2.43;;
2720;SDS011;1368;49.484;11.112;2022-10-16T09:26:22;3.30;;;2.20;;
2720;SDS011;1368;49.484;11.112;2022-10-16T09:28:48;6.00;;;2.67;;
2720;SDS011;1368;49.484;11.112;2022-10-16T09:31:17;3.90;;;2.47;;
2720;SDS011;1368;49.484;11.112;2022-10-16T09:33:45;4.50;;;2.60;;
2720;SDS011;1368;49.484;11.112;2022-10-16T09:36:17;4.07;;;2.30;;
2720;SDS011;1368;49.484;11.112;2022-10-16T09:38:43;5.83;;;2.57;;
2720;SDS011;1368;49.484;11.112;2022-10-16T09:41:43;8.17;;;2.87;;
2720;SDS011;1368;49.484;11.112;2022-10-16T09:44:02;7.50;;;2.27;;
2720;SDS011;1368;49.484;11.112;2022-10-16T09:46:35;4.23;;;2.60;;
2720;SDS011;1368;49.484;11.112;2022-10-16T09:51:30;4.13;;;2.23;;
2720;SDS011;1368;49.484;11.112;2022-10-16T09:54:17;6.10;;;2.30;;
2720;SDS011;1368;49.484;11.112;2022-10-16T09:56:44;6.10;;;2.73;;
2720;SDS011;1368;49.484;11.112;2022-10-16T09:59:15;3.73;;;2.47;;
2720;SDS011;1368;49.484;11.112;2022-10-16T10:04:15;3.57;;;2.63;;
2720;SDS011;1368;49.484;11.112;2022-10-16T10:06:51;4.53;;;2.70;;
2720;SDS011;1368;49.484;11.112;2022-10-16T10:09:23;6.47;;;2.60;;
2720;SDS011;1368;49.484;11.112;2022-10-16T10:11:55;3.83;;;2.40;;
2720;SDS011;1368;49.484;11.112;2022-10-16T10:16:52;4.23;;;2.37;;
2720;SDS011;1368;49.484;11.112;2022-10-16T10:19:27;3.93;;;2.20;;
2720;SDS011;1368;49.484;11.112;2022-10-16T10:21:53;4.60;;;3.00;;
2720;SDS011;1368;49.484;11.112;2022-10-16T10:24:19;5.90;;;2.63;;
2720;SDS011;1368;49.484;11.112;2022-10-16T10:26:47;5.97;;;2.60;;
2720;SDS011;1368;49.484;11.112;2022-10-16T10:29:35;4.73;;;2.43;;
2720;SDS011;1368;49.484;11.112;2022-10-16T10:37:34;7.27;;;2.67;;
2720;SDS011;1368;49.484;11.112;2022-10-16T10:40:29;5.67;;;2.53;;
2720;SDS011;1368;49.484;11.112;2022-10-16T10:45:43;4.80;;;2.27;;
2720;SDS011;1368;49.484;11.112;2022-10-16T10:51:01;4.03;;;1.83;;
2720;SDS011;1368;49.484;11.112;2022-10-16T11:04:33;4.10;;;2.33;;
2720;SDS011;1368;49.484;11.112;2022-10-16T11:07:30;6.70;;;2.93;;
2720;SDS011;1368;49.484;11.112;2022-10-16T11:10:02;5.87;;;2.60;;
2720;SDS011;1368;49.484;11.112;2022-10-16T11:12:35;4.40;;;2.47;;
2720;SDS011;1368;49.484;11.112;2022-10-16T11:15:07;5.00;;;2.53;;
2720;SDS011;1368;49.484;11.112;2022-10-16T11:17:50;6.53;;;2.80;;
2720;SDS011;1368;49.484;11.112;2022-10-16T11:20:24;5.67;;;2.53;;
2720;SDS011;1368;49.484;11.112;2022-10-16T11:25:41;4.60;;;2.70;;
2720;SDS011;1368;49.484;11.112;2022-10-16T11:43:58;4.20;;;2.40;;
2720;SDS011;1368;49.484;11.112;2022-10-16T11:46:28;4.03;;;2.50;;
2720;SDS011;1368;49.484;11.112;2022-10-16T11:49:09;8.07;;;2.90;;
2720;SDS011;1368;49.484;11.112;2022-10-16T11:51:43;6.83;;;2.47;;
2720;SDS011;1368;49.484;11.112;2022-10-16T11:54:16;4.30;;;2.53;;
2720;SDS011;1368;49.484;11.112;2022-10-16T11:56:53;3.90;;;2.57;;
2720;SDS011;1368;49.484;11.112;2022-10-16T11:59:32;3.83;;;2.53;;
2720;SDS011;1368;49.484;11.112;2022-10-16T12:02:20;7.10;;;2.57;;
2720;SDS011;1368;49.484;11.112;2022-10-16T12:05:20;3.43;;;2.47;;
2720;SDS011;1368;49.484;11.112;2022-10-16T12:08:11;6.50;;;2.43;;
2720;SDS011;1368;49.484;11.112;2022-10-16T12:10:39;5.17;;;2.77;;
2720;SDS011;1368;49.484;11.112;2022-10-16T12:16:20;3.60;;;2.53;;
2720;SDS011;1368;49.484;11.112;2022-10-16T12:18:48;4.27;;;2.70;;
2720;SDS011;1368;49.484;11.112;2022-10-16T12:21:14;4.97;;;2.37;;
2720;SDS011;1368;49.484;11.112;2022-10-16T12:23:47;7.10;;;3.00;;
2720;SDS011;1368;49.484;11.112;2022-10-16T12:26:27;5.00;;;3.23;;
2720;SDS011;1368;49.484;11.112;2022-10-16T12:29:12;5.60;;;2.40;;
2720;SDS011;1368;49.484;11.112;2022-10-16T12:31:43;5.20;;;2.80;;
2720;SDS011;1368;49.484;11.112;2022-10-16T12:34:31;4.30;;;2.60;;
2720;SDS011;1368;49.484;11.112;2022-10-16T12:37:20;6.40;;;3.00;;
2720;SDS011;1368;49.484;11.112;2022-10-16T12:39:48;7.57;;;3.03;;
2720;SDS011;1368;49.484;11.112;2022-10-16T12:42:32;5.03;;;2.67;;
2720;SDS011;1368;49.484;11.112;2022-10-16T12:44:59;8.70;;;2.90;;
2720;SDS011;1368;49.484;11.112;2022-10-16T12:49:57;5.37;;;2.43;;
2720;SDS011;1368;49.484;11.112;2022-10-16T12:52:37;5.73;;;2.57;;
2720;SDS011;1368;49.484;11.112;2022-10-16T12:55:04;5.93;;;2.67;;
2720;SDS011;1368;49.484;11.112;2022-10-16T13:03:44;6.77;;;2.40;;
2720;SDS011;1368;49.484;11.112;2022-10-16T13:06:13;4.53;;;2.20;;
2720;SDS011;1368;49.484;11.112;2022-10-16T13:11:43;4.67;;;2.90;;
2720;SDS011;1368;49.484;11.112;2022-10-16T13:14:43;7.10;;;2.60;;
2720;SDS011;1368;49.484;11.112;2022-10-16T13:20:12;4.17;;;2.67;;
2720;SDS011;1368;49.484;11.112;2022-10-16T13:25:34;4.10;;;2.37;;
2720;SDS011;1368;49.484;11.112;2022-10-16T13:28:13;6.63;;;1.90;;
2720;SDS011;1368;49.484;11.112;2022-10-16T13:30:52;5.33;;;2.67;;
2720;SDS011;1368;49.484;11.112;2022-10-16T13:35:54;3.83;;;2.47;;
2720;SDS011;1368;49.484;11.112;2022-10-16T13:38:22;6.13;;;2.50;;
2720;SDS011;1368;49.484;11.112;2022-10-16T13:40:59;7.63;;;3.53;;
2720;SDS011;1368;49.484;11.112;2022-10-16T13:43:34;8.43;;;4.83;;
2720;SDS011;1368;49.484;11.112;2022-10-16T13:46:04;6.63;;;4.03;;
2720;SDS011;1368;49.484;11.112;2022-10-16T13:48:39;7.30;;;3.60;;
2720;SDS011;1368;49.484;11.112;2022-10-16T13:53:38;3.67;;;2.13;;
2720;SDS011;1368;49.484;11.112;2022-10-16T13:56:06;4.43;;;2.43;;
2720;SDS011;1368;49.484;11.112;2022-10-16T13:58:40;6.60;;;2.20;;
2720;SDS011;1368;49.484;11.112;2022-10-16T14:01:14;3.67;;;1.77;;
2720;SDS011;1368;49.484;11.112;2022-10-16T14:03:42;5.00;;;2.40;;
2720;SDS011;1368;49.484;11.112;2022-10-16T14:06:16;4.90;;;2.10;;
2720;SDS011;1368;49.484;11.112;2022-10-16T14:08:48;5.93;;;2.53;;
2720;SDS011;1368;49.484;11.112;2022-10-16T14:11:24;4.27;;;1.70;;
2720;SDS011;1368;49.484;11.112;2022-10-16T14:13:50;4.97;;;2.13;;
2720;SDS011;1368;49.484;11.112;2022-10-16T14:16:18;7.20;;;2.30;;
2720;SDS011;1368;49.484;11.112;2022-10-16T14:18:56;5.60;;;2.03;;
2720;SDS011;1368;49.484;11.112;2022-10-16T14:21:23;7.47;;;2.13;;
2720;SDS011;1368;49.484;11.112;2022-10-16T14:23:49;4.53;;;2.37;;
2720;SDS011;1368;49.484;11.112;2022-10-16T14:26:16;5.63;;;2.27;;
2720;SDS011;1368;49.484;11.112;2022-10-16T14:28:44;7.17;;;2.37;;
2720;SDS011;1368;49.484;11.112;2022-10-16T14:31:28;3.63;;;2.20;;
2720;SDS011;1368;49.484;11.112;2022-10-16T14:33:58;6.10;;;2.70;;
2720;SDS011;1368;49.484;11.112;2022-10-16T14:36:25;4.30;;;2.07;;
2720;SDS011;1368;49.484;11.112;2022-10-16T14:41:29;3.87;;;2.13;;
2720;SDS011;1368;49.484;11.112;2022-10-16T14:44:05;3.70;;;2.00;;
2720;SDS011;1368;49.484;11.112;2022-10-16T14:46:34;2.97;;;2.10;;
2720;SDS011;1368;49.484;11.112;2022-10-16T14:49:03;3.93;;;2.13;;
2720;SDS011;1368;49.484;11.112;2022-10-16T14:51:40;5.50;;;2.17;;
2720;SDS011;1368;49.484;11.112;2022-10-16T14:54:08;5.30;;;2.60;;
2720;SDS011;1368;49.484;11.112;2022-10-16T14:56:45;3.00;;;1.80;;
2720;SDS011;1368;49.484;11.112;2022-10-16T14:59:24;4.70;;;2.50;;
2720;SDS011;1368;49.484;11.112;2022-10-16T15:01:58;5.87;;;2.20;;
2720;SDS011;1368;49.484;11.112;2022-10-16T15:04:24;5.67;;;2.37;;
2720;SDS011;1368;49.484;11.112;2022-10-16T15:06:49;5.53;;;2.10;;
2720;SDS011;1368;49.484;11.112;2022-10-16T15:09:15;5.47;;;2.23;;
2720;SDS011;1368;49.484;11.112;2022-10-16T15:11:41;3.57;;;1.83;;
2720;SDS011;1368;49.484;11.112;2022-10-16T15:14:13;5.20;;;2.63;;
2720;SDS011;1368;49.484;11.112;2022-10-16T15:16:38;4.23;;;2.30;;
2720;SDS011;1368;49.484;11.112;2022-10-16T15:19:04;5.83;;;2.03;;
2720;SDS011;1368;49.484;11.112;2022-10-16T15:21:31;5.40;;;2.10;;
2720;SDS011;1368;49.484;11.112;2022-10-16T15:23:57;3.90;;;2.30;;
2720;SDS011;1368;49.484;11.112;2022-10-16T15:26:24;3.53;;;2.20;;
2720;SDS011;1368;49.484;11.112;2022-10-16T15:28:51;4.27;;;2.17;;
2720;SDS011;1368;49.484;11.112;2022-10-16T15:31:17;5.07;;;2.77;;
2720;SDS011;1368;49.484;11.112;2022-10-16T15:33:42;3.83;;;2.47;;
2720;SDS011;1368;49.484;11.112;2022-10-16T15:36:08;4.90;;;2.27;;
2720;SDS011;1368;49.484;11.112;2022-10-16T15:38:34;6.07;;;2.73;;
2720;SDS011;1368;49.484;11.112;2022-10-16T15:41:00;4.33;;;2.80;;
2720;SDS011;1368;49.484;11.112;2022-10-16T15:43:25;4.37;;;2.53;;
2720;SDS011;1368;49.484;11.112;2022-10-16T15:46:04;4.53;;;2.33;;
2720;SDS011;1368;49.484;11.112;2022-10-16T15:48:33;5.07;;;3.70;;
2720;SDS011;1368;49.484;11.112;2022-10-16T15:50:59;9.17;;;6.47;;
2720;SDS011;1368;49.484;11.112;2022-10-16T15:53:29;12.23;;;6.60;;
2720;SDS011;1368;49.484;11.112;2022-10-16T15:55:55;11.13;;;7.83;;
2720;SDS011;1368;49.484;11.112;2022-10-16T15:58:20;9.83;;;7.77;;
2720;SDS011;1368;49.484;11.112;2022-10-16T16:00:53;14.17;;;12.67;;
2720;SDS011;1368;49.484;11.112;2022-10-16T16:03:23;11.57;;;7.93;;
2720;SDS011;1368;49.484;11.112;2022-10-16T16:05:49;8.23;;;6.07;;
2720;SDS011;1368;49.484;11.112;2022-10-16T16:08:14;7.30;;;5.23;;
2720;SDS011;1368;49.484;11.112;2022-10-16T16:10:40;8.03;;;4.63;;
2720;SDS011;1368;49.484;11.112;2022-10-16T16:13:05;4.50;;;3.30;;
2720;SDS011;1368;49.484;11.112;2022-10-16T16:15:31;7.40;;;2.73;;
2720;SDS011;1368;49.484;11.112;2022-10-16T16:17:57;6.70;;;2.83;;
2720;SDS011;1368;49.484;11.112;2022-10-16T16:20:23;7.40;;;2.87;;
2720;SDS011;1368;49.484;11.112;2022-10-16T16:22:48;5.60;;;2.80;;
2720;SDS011;1368;49.484;11.112;2022-10-16T16:25:14;4.63;;;2.83;;
2720;SDS011;1368;49.484;11.112;2022-10-16T16:27:39;12.83;;;7.43;;
2720;SDS011;1368;49.484;11.112;2022-10-16T16:30:06;24.47;;;17.43;;
2720;SDS011;1368;49.484;11.112;2022-10-16T16:32:32;10.33;;;6.50;;
2720;SDS011;1368;49.484;11.112;2022-10-16T16:34:59;9.00;;;6.60;;
2720;SDS011;1368;49.484;11.112;2022-10-16T16:37:25;17.63;;;12.03;;
2720;SDS011;1368;49.484;11.112;2022-10-16T16:39:50;17.97;;;14.13;;
2720;SDS011;1368;49.484;11.112;2022-10-16T16:42:16;16.00;;;10.73;;
2720;SDS011;1368;49.484;11.112;2022-10-16T16:44:41;16.83;;;10.93;;
2720;SDS011;1368;49.484;11.112;2022-10-16T16:47:07;16.00;;;11.20;;
2720;SDS011;1368;49.484;11.112;2022-10-16T16:49:32;13.50;;;9.60;;
2720;SDS011;1368;49.484;11.112;2022-10-16T16:51:58;20.37;;;10.60;;
2720;SDS011;1368;49.484;11.112;2022-10-16T16:54:23;45.70;;;31.57;;